createdAt,value
2022-08-18T00:01:35.256Z,98054.09
2022-08-18T00:04:03.418Z,98043.34
2022-08-18T00:06:31.397Z,98034.91
2022-08-18T00:09:00.177Z,98042.84
2022-08-18T00:11:41.374Z,98039.97
2022-08-18T00:14:11.550Z,98034.38
2022-08-18T00:16:41.199Z,98032.66
2022-08-18T00:19:09.494Z,98036.91
2022-08-18T00:21:36.497Z,98038.91
2022-08-18T00:24:04.026Z,98020.34
2022-08-18T00:26:36.267Z,98031.59
2022-08-18T00:29:03.620Z,98031.50
2022-08-18T00:31:31.536Z,98026.75
2022-08-18T00:33:58.318Z,98017.31
2022-08-18T00:36:25.332Z,98037.91
2022-08-18T00:38:52.025Z,98034.31
2022-08-18T00:41:20.251Z,98018.63
2022-08-18T00:43:50.158Z,98023.22
2022-08-18T00:46:27.467Z,98023.16
2022-08-18T00:48:54.345Z,98039.09
2022-08-18T00:51:38.183Z,98032.16
2022-08-18T00:54:23.296Z,98035.19
2022-08-18T00:56:53.333Z,98039.13
2022-08-18T00:59:38.164Z,98051.50
2022-08-18T01:02:10.417Z,98043.22
2022-08-18T01:04:45.141Z,98043.94
2022-08-18T01:07:20.421Z,98044.19
2022-08-18T01:09:51.765Z,98029.16
2022-08-18T01:12:27.975Z,98029.81
2022-08-18T01:15:07.216Z,98048.09
2022-08-18T01:17:52.708Z,98048.41
2022-08-18T01:20:47.837Z,98055.69
2022-08-18T01:23:20.745Z,98061.78
2022-08-18T01:26:00.580Z,98053.34
2022-08-18T01:28:28.243Z,98056.59
2022-08-18T01:30:58.232Z,98066.38
2022-08-18T01:33:32.702Z,98065.25
2022-08-18T01:36:16.730Z,98059.97
2022-08-18T01:38:51.854Z,98062.34
2022-08-18T01:41:28.606Z,98070.97
2022-08-18T01:43:59.497Z,98072.84
2022-08-18T01:46:27.538Z,98060.75
2022-08-18T01:48:54.182Z,98063.75
2022-08-18T01:51:34.778Z,98066.44
2022-08-18T01:54:07.790Z,98067.81
2022-08-18T01:56:34.385Z,98070.69
2022-08-18T01:59:01.048Z,98069.53
2022-08-18T02:01:36.600Z,98077.13
2022-08-18T02:04:33.372Z,98071.88
2022-08-18T02:06:54.440Z,98068.88
2022-08-18T02:09:24.121Z,98068.50
2022-08-18T02:11:53.124Z,98058.03
2022-08-18T02:14:26.987Z,98061.44
2022-08-18T02:16:59.418Z,98067.50
2022-08-18T02:19:28.951Z,98062.22
2022-08-18T02:21:55.521Z,98062.78
2022-08-18T02:24:22.182Z,98068.00
2022-08-18T02:26:48.743Z,98072.41
2022-08-18T02:29:15.304Z,98085.72
2022-08-18T02:31:41.885Z,98079.16
2022-08-18T02:34:08.462Z,98072.88
2022-08-18T02:36:35.085Z,98068.34
2022-08-18T02:39:01.672Z,98070.69
2022-08-18T02:41:29.532Z,98068.34
2022-08-18T02:43:58.010Z,98076.97
2022-08-18T02:46:29.977Z,98082.84
2022-08-18T02:48:57.380Z,98079.00
2022-08-18T02:51:26.012Z,98081.00
2022-08-18T02:53:53.798Z,98077.09
2022-08-18T02:56:41.639Z,98097.88
2022-08-18T02:59:24.213Z,98096.38
2022-08-18T03:01:52.746Z,98100.56
2022-08-18T03:04:29.661Z,98094.84
2022-08-18T03:06:59.586Z,98090.28
2022-08-18T03:09:27.011Z,98087.41
2022-08-18T03:11:54.644Z,98102.78
2022-08-18T03:14:21.730Z,98102.25
2022-08-18T03:16:54.938Z,98098.22
2022-08-18T03:19:29.552Z,98089.75
2022-08-18T03:22:02.602Z,98101.72
2022-08-18T03:24:31.803Z,98112.72
2022-08-18T03:26:59.276Z,98118.13
2022-08-18T03:29:31.200Z,98109.66
2022-08-18T03:32:00.119Z,98116.25
2022-08-18T03:34:26.765Z,98119.97
2022-08-18T03:36:53.723Z,98108.31
2022-08-18T03:39:23.648Z,98105.44
2022-08-18T03:41:59.549Z,98108.13
2022-08-18T03:44:31.454Z,98100.19
2022-08-18T03:46:58.769Z,98086.69
2022-08-18T03:49:27.289Z,98093.78
2022-08-18T03:51:54.610Z,98091.56
2022-08-18T03:54:22.312Z,98087.53
2022-08-18T03:56:49.726Z,98091.94
2022-08-18T03:59:22.598Z,98092.63
2022-08-18T04:01:51.410Z,98078.28
2022-08-18T04:04:22.195Z,98082.66
2022-08-18T04:06:54.147Z,98095.53
2022-08-18T04:09:22.550Z,98096.84
2022-08-18T04:11:49.529Z,98094.53
2022-08-18T04:14:21.264Z,98084.72
2022-08-18T04:16:49.266Z,98086.22
2022-08-18T04:19:26.446Z,98096.25
2022-08-18T04:21:55.976Z,98096.56
2022-08-18T04:24:22.729Z,98091.97
2022-08-18T04:26:49.962Z,98086.56
2022-08-18T04:29:19.726Z,98101.91
2022-08-18T04:31:46.962Z,98090.78
2022-08-18T04:34:13.951Z,98085.84
2022-08-18T04:36:41.712Z,98087.72
2022-08-18T04:39:10.140Z,98079.44
2022-08-18T04:41:38.393Z,98081.78
2022-08-18T04:44:07.482Z,98086.19
2022-08-18T04:46:41.170Z,98081.28
2022-08-18T04:49:09.227Z,98088.38
2022-08-18T04:52:22.662Z,98098.31
2022-08-18T04:54:24.936Z,98092.38
2022-08-18T04:56:51.627Z,98083.63
2022-08-18T04:59:18.439Z,98097.63
2022-08-18T05:01:47.688Z,98093.56
2022-08-18T05:04:16.571Z,98088.63
2022-08-18T05:06:44.580Z,98079.63
2022-08-18T05:09:16.665Z,98083.84
2022-08-18T05:11:47.694Z,98080.97
2022-08-18T05:14:14.262Z,98082.31
2022-08-18T05:16:47.730Z,98082.28
2022-08-18T05:19:22.039Z,98086.63
2022-08-18T05:21:51.522Z,98086.25
2022-08-18T05:24:20.759Z,98085.03
2022-08-18T05:26:48.801Z,98097.31
2022-08-18T05:29:18.905Z,98098.16
2022-08-18T05:31:50.706Z,98097.56
2022-08-18T05:34:19.927Z,98096.34
2022-08-18T05:36:49.277Z,98095.84
2022-08-18T05:39:21.655Z,98104.75
2022-08-18T05:42:13.274Z,98100.69
2022-08-18T05:44:44.372Z,98104.94
2022-08-18T05:47:14.251Z,98096.16
2022-08-18T05:49:48.063Z,98099.13
2022-08-18T05:52:36.506Z,98097.94
2022-08-18T05:55:26.515Z,98105.16
2022-08-18T05:58:04.439Z,98095.59
2022-08-18T06:00:32.373Z,98091.50
2022-08-18T06:03:08.602Z,98099.34
2022-08-18T06:05:38.401Z,98110.22
2022-08-18T06:08:08.487Z,98105.75
2022-08-18T06:10:37.133Z,98113.50
2022-08-18T06:13:08.234Z,98107.19
2022-08-18T06:15:53.180Z,98110.47
2022-08-18T06:18:25.379Z,98106.97
2022-08-18T06:21:04.123Z,98095.44
2022-08-18T06:23:52.364Z,98094.66
2022-08-18T06:26:39.891Z,98091.19
2022-08-18T06:29:47.559Z,98091.16
2022-08-18T06:32:14.496Z,98087.19
2022-08-18T06:35:08.271Z,98085.19
2022-08-18T06:38:12.266Z,98090.25
2022-08-18T06:40:39.120Z,98087.63
2022-08-18T06:43:11.930Z,98089.47
2022-08-18T06:45:41.868Z,98083.72
2022-08-18T06:48:31.219Z,98083.56
2022-08-18T06:51:01.443Z,98081.56
2022-08-18T06:53:53.169Z,98085.81
2022-08-18T06:56:27.152Z,98068.66
2022-08-18T06:58:55.398Z,98065.28
2022-08-18T07:01:24.834Z,98063.09
2022-08-18T07:03:56.705Z,98048.47
2022-08-18T07:06:27.619Z,98064.47
2022-08-18T07:08:55.535Z,98065.75
2022-08-18T07:11:24.786Z,98060.50
2022-08-18T07:14:16.622Z,98069.13
2022-08-18T07:17:00.003Z,98063.28
2022-08-18T07:19:31.383Z,98059.69
2022-08-18T07:22:17.404Z,98056.16
2022-08-18T07:24:47.592Z,98054.78
2022-08-18T07:27:22.435Z,98057.63
2022-08-18T07:30:09.127Z,98062.84
2022-08-18T07:33:00.211Z,98062.00
2022-08-18T07:35:39.325Z,98055.41
2022-08-18T07:38:42.613Z,98033.19
2022-08-18T07:41:24.133Z,98059.50
2022-08-18T07:43:53.457Z,98067.78
2022-08-18T07:46:26.542Z,98067.25
2022-08-18T07:48:53.135Z,98063.56
2022-08-18T07:51:45.539Z,98071.91
2022-08-18T07:54:48.790Z,98081.94
2022-08-18T07:57:38.055Z,98085.44
2022-08-18T08:00:30.788Z,98095.25
2022-08-18T08:03:06.769Z,98102.50
2022-08-18T08:05:48.893Z,98104.44
2022-08-18T08:08:41.855Z,98114.94
2022-08-18T08:11:14.270Z,98121.31
2022-08-18T08:13:56.174Z,98118.75
2022-08-18T08:16:32.177Z,98123.13
2022-08-18T08:19:12.411Z,98120.38
2022-08-18T08:21:53.072Z,98114.97
2022-08-18T08:24:39.476Z,98114.81
2022-08-18T08:27:21.330Z,98119.50
2022-08-18T08:30:14.252Z,98112.63
2022-08-18T08:33:33.407Z,98105.56
2022-08-18T08:36:10.434Z,98099.13
2022-08-18T08:39:05.931Z,98102.47
2022-08-18T08:41:41.111Z,98092.78
2022-08-18T08:44:19.410Z,98093.25
2022-08-18T08:46:52.845Z,98093.25
2022-08-18T08:49:29.218Z,98089.41
2022-08-18T08:52:03.485Z,98080.78
2022-08-18T08:54:35.494Z,98084.41
2022-08-18T08:57:04.440Z,98090.78
2022-08-18T08:59:31.054Z,98086.97
2022-08-18T09:02:08.027Z,98083.97
2022-08-18T09:04:34.658Z,98085.63
2022-08-18T09:07:18.099Z,98086.78
2022-08-18T09:10:25.688Z,98084.53
2022-08-18T09:13:10.993Z,98073.91
2022-08-18T09:16:00.888Z,98079.16
2022-08-18T09:18:55.601Z,98076.44
2022-08-18T09:21:35.301Z,98071.13
2022-08-18T09:24:17.102Z,98067.47
2022-08-18T09:27:03.657Z,98069.75
2022-08-18T09:29:44.179Z,98073.44
2022-08-18T09:32:22.917Z,98070.41
2022-08-18T09:35:01.035Z,98050.47
2022-08-18T09:37:45.786Z,98078.47
2022-08-18T09:41:01.780Z,98072.34
2022-08-18T09:43:55.281Z,98056.72
2022-08-18T09:46:43.855Z,98055.09
2022-08-18T09:49:22.511Z,98045.59
2022-08-18T09:51:51.308Z,98038.88
2022-08-18T09:54:25.081Z,98039.25
2022-08-18T09:56:53.892Z,98028.97
2022-08-18T09:59:34.946Z,98033.13
2022-08-18T10:05:19.520Z,98029.25
2022-08-18T10:08:06.101Z,98019.38
2022-08-18T10:11:01.202Z,98015.97
2022-08-18T10:13:58.812Z,98012.50
2022-08-18T10:23:01.975Z,98010.41
2022-08-18T10:25:36.751Z,98019.25
2022-08-18T10:28:06.852Z,98018.16
2022-08-18T10:30:34.407Z,98027.88
2022-08-18T10:33:17.904Z,98027.09
2022-08-18T10:36:02.974Z,98025.09
2022-08-18T10:38:45.890Z,98021.16
2022-08-18T10:41:30.665Z,98007.66
2022-08-18T10:44:00.078Z,98016.78
2022-08-18T10:46:42.638Z,98007.13
2022-08-18T10:49:13.556Z,98020.44
2022-08-18T10:52:16.568Z,98012.63
2022-08-18T10:55:16.263Z,98008.50
2022-08-18T10:58:01.424Z,97997.66
2022-08-18T11:00:42.452Z,98009.31
2022-08-18T11:06:24.870Z,98011.44
2022-08-18T11:08:57.671Z,98009.88
2022-08-18T11:11:38.773Z,97998.78
2022-08-18T11:14:15.239Z,98001.84
2022-08-18T11:17:10.964Z,98014.72
2022-08-18T11:19:41.991Z,98004.34
2022-08-18T11:22:49.957Z,97993.50
2022-08-18T11:25:22.557Z,97994.28
2022-08-18T11:27:49.432Z,97979.06
2022-08-18T11:30:31.109Z,97978.81
2022-08-18T11:33:02.652Z,97978.66
2022-08-18T11:35:34.231Z,97986.19
2022-08-18T11:38:12.498Z,97970.28
2022-08-18T11:43:41.883Z,97955.22
2022-08-18T11:46:29.417Z,97950.03
2022-08-18T11:48:59.996Z,97949.47
2022-08-18T11:51:33.881Z,97951.94
2022-08-18T11:57:46.619Z,97943.97
2022-08-18T12:00:36.477Z,97947.16
2022-08-18T12:03:33.156Z,97939.88
2022-08-18T12:06:19.300Z,97935.16
2022-08-18T12:09:03.444Z,97936.59
2022-08-18T12:11:32.719Z,97935.22
2022-08-18T12:14:30.123Z,97920.28
2022-08-18T12:16:54.199Z,97922.81
2022-08-18T12:22:25.962Z,97923.28
2022-08-18T12:24:53.856Z,97912.22
2022-08-18T12:27:24.033Z,97913.09
2022-08-18T12:29:52.853Z,97901.66
2022-08-18T12:35:14.118Z,97899.53
2022-08-18T12:40:31.862Z,97911.69
2022-08-18T12:42:58.459Z,97909.28
2022-08-18T12:48:13.007Z,97922.78
2022-08-18T12:50:54.192Z,97927.22
2022-08-18T12:53:30.031Z,97931.31
2022-08-18T12:56:07.455Z,97933.66
2022-08-18T12:58:38.083Z,97937.88
2022-08-18T13:01:07.314Z,97938.22
2022-08-18T13:06:20.752Z,97946.03
2022-08-18T13:08:48.073Z,97949.03
2022-08-18T13:11:23.577Z,97943.97
2022-08-18T13:13:53.098Z,97939.75
2022-08-18T13:16:38.741Z,97943.72
2022-08-18T13:19:14.391Z,97932.34
2022-08-18T13:21:42.929Z,97937.31
2022-08-18T13:24:12.783Z,97938.22
2022-08-18T13:26:43.060Z,97927.22
2022-08-18T13:29:13.809Z,97936.00
2022-08-18T13:31:41.035Z,97955.03
2022-08-18T13:34:19.253Z,97951.41
2022-08-18T13:36:48.342Z,97932.31
2022-08-18T13:39:18.304Z,97918.00
2022-08-18T13:41:47.693Z,97920.13
2022-08-18T13:44:18.712Z,97924.19
2022-08-18T13:46:48.169Z,97911.84
2022-08-18T13:49:18.532Z,97929.38
2022-08-18T13:51:52.572Z,97934.34
2022-08-18T13:54:31.296Z,97931.53
2022-08-18T13:56:59.575Z,97929.78
2022-08-18T13:59:33.004Z,97919.00
2022-08-18T14:02:08.567Z,97926.25
2022-08-18T14:04:37.881Z,97918.63
2022-08-18T14:07:10.359Z,97911.03
2022-08-18T14:09:39.163Z,97935.53
2022-08-18T14:12:15.840Z,97939.75
2022-08-18T14:14:55.572Z,97938.22
2022-08-18T14:17:25.409Z,97937.69
2022-08-18T14:20:14.950Z,97940.41
2022-08-18T14:23:00.695Z,97943.66
2022-08-18T14:25:46.282Z,97945.50
2022-08-18T14:28:13.125Z,97944.88
2022-08-18T14:30:40.119Z,97950.81
2022-08-18T14:33:11.645Z,97947.84
2022-08-18T14:36:05.764Z,97942.91
2022-08-18T14:38:25.034Z,97952.66
2022-08-18T14:40:51.870Z,97948.31
2022-08-18T14:43:25.052Z,97953.53
2022-08-18T14:45:58.032Z,97953.19
2022-08-18T14:48:27.469Z,97953.41
2022-08-18T14:50:56.214Z,97950.44
2022-08-18T14:53:26.305Z,97953.97
2022-08-18T14:55:53.485Z,97948.56
2022-08-18T14:58:27.883Z,97936.25
2022-08-18T15:00:57.041Z,97945.22
2022-08-18T15:03:30.904Z,97933.06
2022-08-18T15:06:00.158Z,97933.06
2022-08-18T15:08:27.058Z,97917.28
2022-08-18T15:10:55.783Z,97916.25
2022-08-18T15:13:26.488Z,97929.06
2022-08-18T15:15:55.869Z,97924.09
2022-08-18T15:18:28.809Z,97921.47
2022-08-18T15:21:19.350Z,97933.06
2022-08-18T15:24:05.217Z,97936.91
2022-08-18T15:26:47.431Z,97937.66
2022-08-18T15:29:19.234Z,97941.03
2022-08-18T15:31:50.772Z,97946.16
2022-08-18T15:34:20.774Z,97943.94
2022-08-18T15:36:48.237Z,97949.09
2022-08-18T15:39:15.313Z,97951.56
2022-08-18T15:41:48.638Z,97953.72
2022-08-18T15:44:18.300Z,97955.66
2022-08-18T15:46:51.151Z,97951.91
2022-08-18T15:49:21.826Z,97939.16
2022-08-18T15:51:50.439Z,97938.22
2022-08-18T15:54:19.601Z,97932.53
2022-08-18T15:56:57.595Z,97926.56
2022-08-18T15:59:33.080Z,97917.63
2022-08-18T16:02:06.745Z,97922.72
2022-08-18T16:04:41.242Z,97918.94
2022-08-18T16:07:11.348Z,97918.53
2022-08-18T16:09:38.914Z,97921.59
2022-08-18T16:12:08.649Z,97926.84
2022-08-18T16:14:39.934Z,97937.28
2022-08-18T16:17:09.409Z,97934.34
2022-08-18T16:19:44.521Z,97937.31
2022-08-18T16:22:11.289Z,97940.94
2022-08-18T16:24:37.875Z,97931.34
2022-08-18T16:27:06.565Z,97934.69
2022-08-18T16:29:33.541Z,97934.69
2022-08-18T16:32:00.216Z,97929.94
2022-08-18T16:34:31.000Z,97923.72
2022-08-18T16:36:57.687Z,97921.31
2022-08-18T16:39:24.273Z,97932.47
2022-08-18T16:41:51.503Z,97919.44
2022-08-18T16:44:19.348Z,97933.94
2022-08-18T16:46:45.907Z,97927.56
2022-08-18T16:49:12.489Z,97923.53
2022-08-18T16:51:39.081Z,97924.28
2022-08-18T16:54:06.033Z,97916.78
2022-08-18T16:56:35.711Z,97907.13
2022-08-18T16:59:21.159Z,97908.47
2022-08-18T17:02:06.243Z,97915.00
2022-08-18T17:04:34.017Z,97904.94
2022-08-18T17:07:02.894Z,97898.34
2022-08-18T17:09:29.524Z,97905.28
2022-08-18T17:11:56.446Z,97903.72
2022-08-18T17:14:29.768Z,97896.34
2022-08-18T17:16:58.540Z,97893.84
2022-08-18T17:19:30.023Z,97897.13
2022-08-18T17:21:57.233Z,97891.50
2022-08-18T17:24:32.105Z,97880.31
2022-08-18T17:27:11.811Z,97878.13
2022-08-18T17:30:13.832Z,97880.16
2022-08-18T17:32:53.568Z,97855.34
2022-08-18T17:35:26.317Z,97846.75
2022-08-18T17:38:00.872Z,97837.22
2022-08-18T17:40:33.744Z,97849.38
2022-08-18T17:43:00.802Z,97840.22
2022-08-18T17:45:36.008Z,97856.13
2022-08-18T17:48:21.085Z,97868.19
2022-08-18T17:51:28.766Z,97876.78
2022-08-18T17:54:01.272Z,97880.22
2022-08-18T17:56:38.139Z,97880.84
2022-08-18T17:59:45.564Z,97881.56
2022-08-18T18:02:28.460Z,97886.06
2022-08-18T18:05:01.313Z,97885.66
2022-08-18T18:07:32.835Z,97886.47
2022-08-18T18:10:30.095Z,97894.47
2022-08-18T18:13:09.060Z,97900.47
2022-08-18T18:15:39.909Z,97900.31
2022-08-18T18:18:41.754Z,97902.84
2022-08-18T18:21:14.119Z,97909.00
2022-08-18T18:23:49.658Z,97911.78
2022-08-18T18:26:42.848Z,97918.31
2022-08-18T18:29:16.449Z,97920.81
2022-08-18T18:31:58.117Z,97918.38
2022-08-18T18:34:33.430Z,97924.28
2022-08-18T18:37:02.328Z,97925.09
2022-08-18T18:39:36.031Z,97924.25
2022-08-18T18:42:17.449Z,97904.16
2022-08-18T18:44:54.564Z,97921.13
2022-08-18T18:47:54.519Z,97919.44
2022-08-18T18:50:37.650Z,97921.13
2022-08-18T18:53:10.399Z,97927.44
2022-08-18T18:55:52.137Z,97929.56
2022-08-18T18:58:32.762Z,97926.44
2022-08-18T19:01:04.153Z,97917.19
2022-08-18T19:03:33.783Z,97919.09
2022-08-18T19:06:26.196Z,97912.84
2022-08-18T19:09:01.645Z,97918.28
2022-08-18T19:11:46.790Z,97919.75
2022-08-18T19:14:17.570Z,97919.13
2022-08-18T19:16:51.679Z,97911.94
2022-08-18T19:19:37.624Z,97915.50
2022-08-18T19:22:19.246Z,97910.19
2022-08-18T19:24:51.322Z,97912.53
2022-08-18T19:27:23.218Z,97913.78
2022-08-18T19:29:51.886Z,97914.03
2022-08-18T19:32:20.384Z,97912.56
2022-08-18T19:34:55.857Z,97902.88
2022-08-18T19:37:45.045Z,97908.59
2022-08-18T19:40:17.433Z,97902.03
2022-08-18T19:42:49.833Z,97907.25
2022-08-18T19:45:29.643Z,97909.16
2022-08-18T19:48:02.244Z,97909.19
2022-08-18T19:50:33.573Z,97913.59
2022-08-18T19:53:04.782Z,97909.81
2022-08-18T19:55:45.585Z,97909.63
2022-08-18T19:58:15.431Z,97918.22
2022-08-18T20:00:48.223Z,97915.50
2022-08-18T20:03:20.661Z,97910.72
2022-08-18T20:06:14.213Z,97918.44
2022-08-18T20:09:12.271Z,97917.59
2022-08-18T20:12:01.156Z,97912.34
2022-08-18T20:14:27.733Z,97912.56
2022-08-18T20:17:09.606Z,97905.25
2022-08-18T20:19:36.105Z,97911.53
2022-08-18T20:22:15.906Z,97903.38
2022-08-18T20:24:46.689Z,97908.59
2022-08-18T20:27:15.711Z,97903.75
2022-08-18T20:29:46.196Z,97904.41
2022-08-18T20:32:20.629Z,97901.31
2022-08-18T20:34:50.054Z,97901.72
2022-08-18T20:37:25.689Z,97897.53
2022-08-18T20:39:55.131Z,97899.19
2022-08-18T20:42:21.632Z,97905.06
2022-08-18T20:44:48.091Z,97912.63
2022-08-18T20:47:33.267Z,97910.09
2022-08-18T20:50:03.279Z,97909.47
2022-08-18T20:52:48.712Z,97903.00
2022-08-18T20:55:34.924Z,97898.16
2022-08-18T20:58:08.288Z,97917.66
2022-08-18T21:00:40.089Z,97929.19
2022-08-18T21:03:08.236Z,97937.38
2022-08-18T21:05:36.592Z,97942.00
2022-08-18T21:08:03.358Z,97952.47
2022-08-18T21:10:30.337Z,97943.03
2022-08-18T21:12:58.620Z,97954.13
2022-08-18T21:15:30.121Z,97959.38
2022-08-18T21:17:57.518Z,97953.09
2022-08-18T21:20:24.232Z,97963.97
2022-08-18T21:23:01.065Z,97963.56
2022-08-18T21:25:27.553Z,97962.91
2022-08-18T21:27:57.112Z,97965.88
2022-08-18T21:30:24.558Z,97972.56
2022-08-18T21:32:51.231Z,97974.66
2022-08-18T21:35:20.538Z,97967.94
2022-08-18T21:37:57.416Z,97980.28
2022-08-18T21:40:29.961Z,97978.00
2022-08-18T21:42:56.534Z,97992.19
2022-08-18T21:45:26.040Z,97983.41
2022-08-18T21:47:56.964Z,97999.09
2022-08-18T21:50:24.843Z,97998.88
2022-08-18T21:53:02.220Z,98002.22
2022-08-18T21:55:30.137Z,97990.91
2022-08-18T21:58:03.002Z,98008.97
2022-08-18T22:00:29.793Z,98001.56
2022-08-18T22:03:28.551Z,98004.94
2022-08-18T22:06:03.650Z,98008.91
2022-08-18T22:08:32.638Z,98013.47
2022-08-18T22:11:43.615Z,98013.72
2022-08-18T22:14:53.755Z,98016.47
2022-08-18T22:17:24.607Z,98029.16
2022-08-18T22:19:51.140Z,98030.44
2022-08-18T22:22:37.117Z,98031.91
2022-08-18T22:25:04.386Z,98037.13
2022-08-18T22:27:30.993Z,98036.63
2022-08-18T22:30:03.761Z,98038.94
2022-08-18T22:32:34.139Z,98037.69
2022-08-18T22:35:00.596Z,98037.19
2022-08-18T22:37:29.506Z,98042.72
2022-08-18T22:39:58.356Z,98035.94
2022-08-18T22:42:26.190Z,98043.28
2022-08-18T22:44:53.225Z,98048.88
2022-08-18T22:47:20.169Z,98047.03
2022-08-18T22:49:47.100Z,98038.41
2022-08-18T22:52:30.266Z,98034.28
2022-08-18T22:54:57.140Z,98033.75
2022-08-18T22:57:23.861Z,98035.22
2022-08-18T22:59:50.372Z,98036.97
2022-08-18T23:02:22.027Z,98031.25
2022-08-18T23:04:48.794Z,98029.97
2022-08-18T23:07:15.270Z,98038.69
2022-08-18T23:09:41.727Z,98030.41
2022-08-18T23:12:10.606Z,98017.84
2022-08-18T23:14:37.221Z,98015.94
2022-08-18T23:17:04.373Z,98012.44
2022-08-18T23:19:31.953Z,98013.41
2022-08-18T23:21:59.317Z,98005.72
2022-08-18T23:24:25.799Z,98012.88
2022-08-18T23:26:52.277Z,98010.22
2022-08-18T23:29:21.221Z,98000.03
2022-08-18T23:31:49.080Z,97996.41
2022-08-18T23:34:19.450Z,98003.53
2022-08-18T23:36:51.371Z,98005.94
2022-08-18T23:39:17.938Z,97999.84
2022-08-18T23:41:44.402Z,97990.47
2022-08-18T23:44:11.398Z,97999.03
2022-08-18T23:46:37.896Z,97998.25
2022-08-18T23:49:05.106Z,97990.69
2022-08-18T23:51:38.379Z,97999.44
2022-08-18T23:54:06.752Z,98000.63
2022-08-18T23:56:33.761Z,98013.00
2022-08-18T23:59:00.795Z,98013.41
